Terminal Aerodrome Forecast
Issued by NWS Norman, OK

Current Version | Previous Version | Text Only | Print | Product List | Glossary Off
Versions: 1 2 3 4 5 6 7 8 9 10 11 12 13 14 15

000
FTUS44 KOUN 161720
TAFOKC
TAF
KOKC 161720Z 1618/1718 19016G23KT P6SM SCT120 BKN250
     FM170000 16010KT P6SM SCT080 BKN120 PROB30 1707/1713 6SM -TSRA
      SCT050 BKN080CB=

USA.gov is the U.S. government's official web portal to all federal, state and local government web resources and services.